Briefing drone pour Lamastre

Rechercher une autre localisation

Conditions de vol :


Nous sommes le : Samedi 26 septembre 2020
Il est 22:02 UTC (00:02 LT)

Lever de soleil : 05:07 UTC (07:07 LT)
Coucher de soleil : 17:58 UTC (19:58 LT)

Météo

L'essentiel des conditions de vol

VIGILANCE MÉTÉO FRANCE - Ardèche (07)
Pas de vigilances particulieres
CARTE TEMSI
CARTES DES FRONTS
METAR de LFLU
LFLU 251800Z AUTO 02006KT 9999 SCT052 BKN068 BKN088 12/07 Q1008

Date d'émission: 25/09/2020
Heure d'émission: 18:00 UTC
Vent: 020° pour 6 KT (11 km/h)
Visibilité horizontale: > 10 km
Plafond :
- Nuages épars à 5200ft (1585m)
- Nuages morcelés à 6800ft (2073m)
- Nuages morcelés à 8800ft (2682m)
Température: 12 °C
Point de rosée: 7 °C
Humidité: 71%
Pression (QNH): 1008 hPa
Prévision 24h pour Valence (16 km)
Vent : 46° pour 4 KT (13 km/h)
Temperature Maxi: 8 °C
Temperature Min: 8 °C
Humidité : 81%
Condition : Légère pluie



Warning: count(): Parameter must be an array or an object that implements Countable in /homepages/6/d509196549/htdocs/droneoxygene/briefing.php on line 743
WEBCAM POUR LAMASTRE

Réglementation

Voler en sécurité

CARTES AERONAUTIQUE 1/500.000
CARTES VAC (LFLU)
SUP AIP




Chargement des AIP...
NOTAM (LAMASTRE + Terrain à proximité / FIR )




Chargement des NOTAMS...
CONTACT PREFECTURE 07


Avertissement : Les données mises à disposition sont indicatives. Oxygène Drone ne pourra être tenu responsable de dégâts causés aux biens et aux personnes.